VOZ868 YSSY-YMML
Flight info
| Callsign | VOZ868 |
|---|---|
| Flight time | 1h 4m |
| Altitude | 40000 |
| Route | WOL2 WOL DCT CB DCT BOYSE BOYSE9A |
| Aircraft | B77W/H-V/N |
Departure
| Time | 2026-04-26 08:24 |
|---|---|
| Airport | Sydney Kingsford Smith International Airport (YSSY) |
Arrival
| Time | 2026-04-26 09:29 |
|---|---|
| Airport | Melbourne Airport (YMML) |
| Time | Latitude | Longitude | Altitude | Speed | Heading |
|---|---|---|---|---|---|
| 2026-04-26 07:43 | -33.94544 | 151.16983 | 28 ft | 0 kts | 164° |
| 2026-04-26 08:01 | -33.94542 | 151.16982 | 28 ft | 2 kts | 164° |
| 2026-04-26 08:01 | -33.94518 | 151.16974 | 27 ft | 4 kts | 164° |
| 2026-04-26 08:01 | -33.94491 | 151.16965 | 28 ft | 4 kts | 164° |
| 2026-04-26 08:01 | -33.94465 | 151.16956 | 27 ft | 4 kts | 164° |
| 2026-04-26 08:02 | -33.94442 | 151.16947 | 27 ft | 4 kts | 152° |
| 2026-04-26 08:02 | -33.94424 | 151.16928 | 27 ft | 4 kts | 106° |
| 2026-04-26 08:02 | -33.94423 | 151.16897 | 27 ft | 4 kts | 75° |
| 2026-04-26 08:02 | -33.94432 | 151.16867 | 27 ft | 4 kts | 66° |
| 2026-04-26 08:03 | -33.94441 | 151.16841 | 28 ft | 1 kts | 75° |
| 2026-04-26 08:03 | -33.94441 | 151.16840 | 28 ft | 0 kts | 75° |
| 2026-04-26 08:05 | -33.94440 | 151.16845 | 28 ft | 3 kts | 75° |
| 2026-04-26 08:05 | -33.94424 | 151.16917 | 27 ft | 15 kts | 75° |
| 2026-04-26 08:06 | -33.94391 | 151.17051 | 29 ft | 17 kts | 74° |
| 2026-04-26 08:06 | -33.94360 | 151.17184 | 30 ft | 4 kts | 74° |
| 2026-04-26 08:06 | -33.94358 | 151.17191 | 30 ft | 0 kts | 74° |
| 2026-04-26 08:07 | -33.94358 | 151.17193 | 30 ft | 0 kts | 74° |
| 2026-04-26 08:08 | -33.94357 | 151.17194 | 30 ft | 1 kts | 74° |
| 2026-04-26 08:08 | -33.94345 | 151.17257 | 30 ft | 17 kts | 83° |
| 2026-04-26 08:08 | -33.94388 | 151.17328 | 31 ft | 8 kts | 157° |
| 2026-04-26 08:09 | -33.94455 | 151.17350 | 31 ft | 12 kts | 168° |
| 2026-04-26 08:09 | -33.94552 | 151.17375 | 31 ft | 16 kts | 168° |
| 2026-04-26 08:09 | -33.94661 | 151.17403 | 31 ft | 16 kts | 167° |
| 2026-04-26 08:09 | -33.94771 | 151.17431 | 28 ft | 17 kts | 168° |
| 2026-04-26 08:10 | -33.94909 | 151.17467 | 27 ft | 23 kts | 168° |
| 2026-04-26 08:10 | -33.95063 | 151.17507 | 28 ft | 23 kts | 168° |
| 2026-04-26 08:10 | -33.95200 | 151.17543 | 25 ft | 16 kts | 167° |
| 2026-04-26 08:10 | -33.95257 | 151.17581 | 25 ft | 9 kts | 115° |
| 2026-04-26 08:11 | -33.95259 | 151.17594 | 27 ft | 0 kts | 100° |
| 2026-04-26 08:12 | -33.95259 | 151.17645 | 30 ft | 18 kts | 81° |
| 2026-04-26 08:12 | -33.95218 | 151.17891 | 29 ft | 18 kts | 76° |
| 2026-04-26 08:13 | -33.95153 | 151.17962 | 30 ft | 11 kts | 14° |
| 2026-04-26 08:13 | -33.95105 | 151.18091 | 31 ft | 29 kts | 77° |
| 2026-04-26 08:13 | -33.95077 | 151.18252 | 29 ft | 16 kts | 78° |
| 2026-04-26 08:13 | -33.95068 | 151.18304 | 30 ft | 2 kts | 78° |
| 2026-04-26 08:14 | -33.95065 | 151.18318 | 30 ft | 2 kts | 78° |
| 2026-04-26 08:14 | -33.95062 | 151.18333 | 30 ft | 2 kts | 78° |
| 2026-04-26 08:14 | -33.95059 | 151.18352 | 30 ft | 2 kts | 78° |
| 2026-04-26 08:14 | -33.95055 | 151.18372 | 31 ft | 3 kts | 78° |
| 2026-04-26 08:15 | -33.95047 | 151.18422 | 31 ft | 14 kts | 78° |
| 2026-04-26 08:15 | -33.95093 | 151.18521 | 32 ft | 22 kts | 143° |
| 2026-04-26 08:15 | -33.95215 | 151.18651 | 31 ft | 24 kts | 138° |
| 2026-04-26 08:15 | -33.95363 | 151.18733 | 29 ft | 24 kts | 167° |
| 2026-04-26 08:16 | -33.95523 | 151.18776 | 27 ft | 24 kts | 167° |
| 2026-04-26 08:16 | -33.95685 | 151.18817 | 30 ft | 24 kts | 168° |
| 2026-04-26 08:16 | -33.95847 | 151.18860 | 31 ft | 24 kts | 167° |
| 2026-04-26 08:16 | -33.96009 | 151.18903 | 32 ft | 24 kts | 167° |
| 2026-04-26 08:17 | -33.96172 | 151.18943 | 30 ft | 24 kts | 168° |
| 2026-04-26 08:17 | -33.96333 | 151.18985 | 30 ft | 24 kts | 168° |
| 2026-04-26 08:17 | -33.96502 | 151.19029 | 28 ft | 26 kts | 168° |
| 2026-04-26 08:17 | -33.96680 | 151.19074 | 25 ft | 26 kts | 169° |
| 2026-04-26 08:18 | -33.96860 | 151.19077 | 25 ft | 26 kts | 166° |
| 2026-04-26 08:18 | -33.97030 | 151.19123 | 28 ft | 14 kts | 170° |
| 2026-04-26 08:18 | -33.97120 | 151.19164 | 29 ft | 14 kts | 131° |
| 2026-04-26 08:18 | -33.97126 | 151.19237 | 30 ft | 0 kts | 79° |
| 2026-04-26 08:22 | -33.97125 | 151.19245 | 28 ft | 4 kts | 79° |
| 2026-04-26 08:22 | -33.97114 | 151.19308 | 27 ft | 11 kts | 77° |
| 2026-04-26 08:22 | -33.97065 | 151.19373 | 26 ft | 10 kts | 9° |
| 2026-04-26 08:22 | -33.96997 | 151.19359 | 27 ft | 0 kts | 348° |
| 2026-04-26 08:23 | -33.96990 | 151.19358 | 29 ft | 8 kts | 348° |
| 2026-04-26 08:23 | -33.96766 | 151.19300 | 24 ft | 70 kts | 348° |
| 2026-04-26 08:24 | -33.96003 | 151.19106 | 36 ft | 151 kts | 349° |
| 2026-04-26 08:24 | -33.94867 | 151.18833 | 529 ft | 173 kts | 351° |
| 2026-04-26 08:24 | -33.93702 | 151.18762 | 1438 ft | 167 kts | 18° |
| 2026-04-26 08:24 | -33.92746 | 151.19575 | 2185 ft | 178 kts | 46° |
| 2026-04-26 08:25 | -33.92039 | 151.20945 | 2539 ft | 212 kts | 69° |
| 2026-04-26 08:25 | -33.91915 | 151.22845 | 2924 ft | 245 kts | 99° |
| 2026-04-26 08:25 | -33.92556 | 151.24780 | 3596 ft | 260 kts | 114° |
| 2026-04-26 08:25 | -33.93456 | 151.26691 | 4380 ft | 268 kts | 130° |
| 2026-04-26 08:26 | -33.95007 | 151.27906 | 5357 ft | 270 kts | 166° |
| 2026-04-26 08:26 | -33.96861 | 151.27865 | 6390 ft | 271 kts | 198° |
| 2026-04-26 08:26 | -33.98528 | 151.26800 | 7273 ft | 274 kts | 213° |
| 2026-04-26 08:26 | -34.00141 | 151.25496 | 8107 ft | 282 kts | 214° |
| 2026-04-26 08:27 | -34.01776 | 151.24151 | 9067 ft | 287 kts | 214° |
| 2026-04-26 08:27 | -34.03429 | 151.22777 | 10041 ft | 291 kts | 214° |
| 2026-04-26 08:27 | -34.05131 | 151.21358 | 10685 ft | 307 kts | 214° |
| 2026-04-26 08:27 | -34.06978 | 151.19818 | 10933 ft | 338 kts | 214° |
| 2026-04-26 08:28 | -34.08988 | 151.18144 | 11415 ft | 359 kts | 214° |
| 2026-04-26 08:28 | -34.11079 | 151.16405 | 12355 ft | 368 kts | 214° |
| 2026-04-26 08:28 | -34.13205 | 151.14638 | 13538 ft | 373 kts | 214° |
| 2026-04-26 08:28 | -34.15360 | 151.12847 | 14626 ft | 379 kts | 214° |
| 2026-04-26 08:29 | -34.17558 | 151.11021 | 15603 ft | 387 kts | 213° |
| 2026-04-26 08:29 | -34.19765 | 151.09189 | 16610 ft | 393 kts | 214° |
| 2026-04-26 08:29 | -34.22042 | 151.07296 | 17630 ft | 399 kts | 214° |
| 2026-04-26 08:29 | -34.24355 | 151.05373 | 18584 ft | 408 kts | 214° |
| 2026-04-26 08:30 | -34.26703 | 151.03417 | 19517 ft | 412 kts | 214° |
| 2026-04-26 08:30 | -34.29082 | 151.01436 | 20431 ft | 417 kts | 214° |
| 2026-04-26 08:30 | -34.31490 | 150.99431 | 21271 ft | 424 kts | 214° |
| 2026-04-26 08:30 | -34.33933 | 150.97396 | 22215 ft | 428 kts | 214° |
| 2026-04-26 08:31 | -34.36401 | 150.95336 | 23102 ft | 433 kts | 214° |
| 2026-04-26 08:31 | -34.38904 | 150.93247 | 23900 ft | 439 kts | 214° |
| 2026-04-26 08:31 | -34.41429 | 150.91138 | 24676 ft | 443 kts | 214° |
| 2026-04-26 08:31 | -34.43968 | 150.89014 | 25483 ft | 444 kts | 214° |
| 2026-04-26 08:32 | -34.46523 | 150.86875 | 26197 ft | 449 kts | 214° |
| 2026-04-26 08:32 | -34.49103 | 150.84714 | 26891 ft | 453 kts | 214° |
| 2026-04-26 08:32 | -34.51705 | 150.82533 | 27610 ft | 456 kts | 215° |
| 2026-04-26 08:32 | -34.54196 | 150.80120 | 28291 ft | 460 kts | 223° |
| 2026-04-26 08:33 | -34.56380 | 150.77268 | 28948 ft | 464 kts | 231° |
| 2026-04-26 08:33 | -34.58260 | 150.74071 | 29592 ft | 468 kts | 239° |
| 2026-04-26 08:33 | -34.59878 | 150.70617 | 30199 ft | 472 kts | 240° |
| 2026-04-26 08:33 | -34.61471 | 150.67097 | 30701 ft | 475 kts | 241° |
| 2026-04-26 08:34 | -34.63057 | 150.63569 | 31170 ft | 478 kts | 240° |
| 2026-04-26 08:34 | -34.64659 | 150.60019 | 31645 ft | 480 kts | 240° |
| 2026-04-26 08:34 | -34.66268 | 150.56479 | 32269 ft | 478 kts | 240° |
| 2026-04-26 08:34 | -34.67857 | 150.53001 | 32942 ft | 474 kts | 240° |
| 2026-04-26 08:35 | -34.69456 | 150.49515 | 33651 ft | 471 kts | 240° |
| 2026-04-26 08:35 | -34.71051 | 150.46044 | 34253 ft | 468 kts | 240° |
| 2026-04-26 08:35 | -34.72641 | 150.42585 | 34678 ft | 470 kts | 240° |
| 2026-04-26 08:35 | -34.74233 | 150.39118 | 35129 ft | 469 kts | 240° |
| 2026-04-26 08:36 | -34.75305 | 150.36782 | 35463 ft | 468 kts | 240° |
| 2026-04-26 08:36 | -34.77390 | 150.32232 | 36132 ft | 465 kts | 241° |
| 2026-04-26 08:36 | -34.78966 | 150.28788 | 36520 ft | 466 kts | 241° |
| 2026-04-26 08:36 | -34.80545 | 150.25335 | 36829 ft | 468 kts | 241° |
| 2026-04-26 08:37 | -34.82126 | 150.21871 | 37218 ft | 467 kts | 241° |
| 2026-04-26 08:37 | -34.83700 | 150.18420 | 37666 ft | 466 kts | 242° |
| 2026-04-26 08:37 | -34.85271 | 150.14971 | 38101 ft | 464 kts | 242° |
| 2026-04-26 08:37 | -34.86837 | 150.11531 | 38538 ft | 463 kts | 242° |
| 2026-04-26 08:38 | -34.88397 | 150.08101 | 38912 ft | 463 kts | 242° |
| 2026-04-26 08:38 | -34.89954 | 150.04673 | 39198 ft | 463 kts | 242° |
| 2026-04-26 08:38 | -34.91512 | 150.01240 | 39466 ft | 463 kts | 242° |
| 2026-04-26 08:38 | -34.93068 | 149.97809 | 39754 ft | 463 kts | 242° |
| 2026-04-26 08:39 | -34.94623 | 149.94375 | 40039 ft | 462 kts | 242° |
| 2026-04-26 08:39 | -34.96177 | 149.90940 | 40177 ft | 465 kts | 242° |
| 2026-04-26 08:39 | -34.99315 | 149.83992 | 40250 ft | 467 kts | 242° |
| 2026-04-26 08:40 | -35.01906 | 149.78248 | 40243 ft | 462 kts | 242° |
| 2026-04-26 08:40 | -35.04986 | 149.71405 | 40252 ft | 459 kts | 242° |
| 2026-04-26 08:41 | -35.08053 | 149.64578 | 40259 ft | 458 kts | 242° |
| 2026-04-26 08:41 | -35.11112 | 149.57753 | 40257 ft | 458 kts | 242° |
| 2026-04-26 08:42 | -35.14171 | 149.50915 | 40260 ft | 459 kts | 242° |
| 2026-04-26 08:42 | -35.17233 | 149.44057 | 40251 ft | 460 kts | 242° |
| 2026-04-26 08:43 | -35.20299 | 149.37174 | 40247 ft | 461 kts | 242° |
| 2026-04-26 08:43 | -35.23366 | 149.30278 | 40241 ft | 462 kts | 242° |
| 2026-04-26 08:44 | -35.26433 | 149.23366 | 40240 ft | 463 kts | 243° |
| 2026-04-26 08:44 | -35.29779 | 149.16641 | 40239 ft | 463 kts | 235° |
| 2026-04-26 08:45 | -35.33615 | 149.10300 | 40244 ft | 464 kts | 234° |
| 2026-04-26 08:45 | -35.37477 | 149.03975 | 40261 ft | 464 kts | 234° |
| 2026-04-26 08:46 | -35.41314 | 148.97627 | 40270 ft | 463 kts | 235° |
| 2026-04-26 08:46 | -35.45110 | 148.91297 | 40276 ft | 463 kts | 235° |
| 2026-04-26 08:47 | -35.48920 | 148.84919 | 40286 ft | 463 kts | 235° |
| 2026-04-26 08:47 | -35.52721 | 148.78546 | 40292 ft | 462 kts | 235° |
| 2026-04-26 08:48 | -35.56517 | 148.72170 | 40292 ft | 462 kts | 235° |
| 2026-04-26 08:48 | -35.60307 | 148.65795 | 40298 ft | 462 kts | 235° |
| 2026-04-26 08:49 | -35.64093 | 148.59415 | 40305 ft | 462 kts | 235° |
| 2026-04-26 08:49 | -35.67871 | 148.53034 | 40292 ft | 461 kts | 235° |
| 2026-04-26 08:50 | -35.71645 | 148.46651 | 40298 ft | 461 kts | 235° |
| 2026-04-26 08:50 | -35.75399 | 148.40290 | 40299 ft | 461 kts | 235° |
| 2026-04-26 08:51 | -35.81039 | 148.30709 | 40292 ft | 460 kts | 235° |
| 2026-04-26 08:52 | -35.84786 | 148.24330 | 40282 ft | 459 kts | 236° |
| 2026-04-26 08:52 | -35.88526 | 148.17951 | 40280 ft | 458 kts | 235° |
| 2026-04-26 08:53 | -35.92248 | 148.11591 | 40286 ft | 456 kts | 235° |
| 2026-04-26 08:53 | -35.95958 | 148.05240 | 40284 ft | 455 kts | 235° |
| 2026-04-26 08:54 | -35.99651 | 147.98905 | 40272 ft | 454 kts | 236° |
| 2026-04-26 08:54 | -36.03314 | 147.92612 | 40271 ft | 454 kts | 236° |
| 2026-04-26 08:55 | -36.06995 | 147.86275 | 40271 ft | 453 kts | 235° |
| 2026-04-26 08:55 | -36.10668 | 147.79941 | 40267 ft | 454 kts | 235° |
| 2026-04-26 08:56 | -36.14343 | 147.73591 | 40264 ft | 454 kts | 235° |
| 2026-04-26 08:56 | -36.18020 | 147.67226 | 40268 ft | 455 kts | 235° |
| 2026-04-26 08:57 | -36.21702 | 147.60841 | 40269 ft | 456 kts | 235° |
| 2026-04-26 08:57 | -36.25385 | 147.54443 | 40260 ft | 456 kts | 235° |
| 2026-04-26 08:58 | -36.29064 | 147.48038 | 40266 ft | 456 kts | 235° |
| 2026-04-26 08:58 | -36.32744 | 147.41620 | 40263 ft | 457 kts | 235° |
| 2026-04-26 08:59 | -36.36394 | 147.35244 | 40264 ft | 456 kts | 235° |
| 2026-04-26 08:59 | -36.40061 | 147.28826 | 40263 ft | 455 kts | 235° |
| 2026-04-26 09:00 | -36.43702 | 147.22440 | 40235 ft | 447 kts | 235° |
| 2026-04-26 09:00 | -36.45487 | 147.19306 | 39909 ft | 444 kts | 235° |
| 2026-04-26 09:00 | -36.47265 | 147.16182 | 39389 ft | 442 kts | 235° |
| 2026-04-26 09:00 | -36.49038 | 147.13061 | 38775 ft | 442 kts | 236° |
| 2026-04-26 09:01 | -36.50807 | 147.09945 | 38232 ft | 439 kts | 235° |
| 2026-04-26 09:01 | -36.52560 | 147.06856 | 37701 ft | 436 kts | 236° |
| 2026-04-26 09:01 | -36.54301 | 147.03785 | 37203 ft | 433 kts | 236° |
| 2026-04-26 09:01 | -36.56025 | 147.00740 | 36750 ft | 429 kts | 236° |
| 2026-04-26 09:02 | -36.57732 | 146.97724 | 36295 ft | 425 kts | 236° |
| 2026-04-26 09:02 | -36.59425 | 146.94729 | 35858 ft | 421 kts | 236° |
| 2026-04-26 09:02 | -36.61106 | 146.91754 | 35397 ft | 419 kts | 236° |
| 2026-04-26 09:02 | -36.62774 | 146.88798 | 34941 ft | 416 kts | 237° |
| 2026-04-26 09:03 | -36.64433 | 146.85855 | 34489 ft | 414 kts | 237° |
| 2026-04-26 09:03 | -36.66083 | 146.82926 | 33997 ft | 412 kts | 237° |
| 2026-04-26 09:03 | -36.67724 | 146.80011 | 33499 ft | 410 kts | 237° |
| 2026-04-26 09:03 | -36.69357 | 146.77108 | 33039 ft | 408 kts | 237° |
| 2026-04-26 09:04 | -36.70978 | 146.74222 | 32586 ft | 405 kts | 237° |
| 2026-04-26 09:04 | -36.72591 | 146.71348 | 32134 ft | 403 kts | 237° |
| 2026-04-26 09:04 | -36.74192 | 146.68494 | 31686 ft | 401 kts | 238° |
| 2026-04-26 09:04 | -36.75769 | 146.65681 | 31260 ft | 399 kts | 238° |
| 2026-04-26 09:05 | -36.77353 | 146.62850 | 30815 ft | 397 kts | 238° |
| 2026-04-26 09:05 | -36.78933 | 146.60028 | 30377 ft | 395 kts | 238° |
| 2026-04-26 09:05 | -36.80504 | 146.57218 | 29868 ft | 394 kts | 238° |
| 2026-04-26 09:05 | -36.82068 | 146.54419 | 29386 ft | 392 kts | 238° |
| 2026-04-26 09:06 | -36.83619 | 146.51640 | 28924 ft | 389 kts | 238° |
| 2026-04-26 09:06 | -36.85166 | 146.48866 | 28483 ft | 387 kts | 238° |
| 2026-04-26 09:06 | -36.86701 | 146.46111 | 28023 ft | 386 kts | 238° |
| 2026-04-26 09:06 | -36.88231 | 146.43362 | 27587 ft | 384 kts | 238° |
| 2026-04-26 09:07 | -36.89753 | 146.40627 | 27157 ft | 382 kts | 238° |
| 2026-04-26 09:07 | -36.91267 | 146.37903 | 26729 ft | 381 kts | 238° |
| 2026-04-26 09:07 | -36.92776 | 146.35186 | 26275 ft | 379 kts | 238° |
| 2026-04-26 09:07 | -36.94257 | 146.32517 | 25862 ft | 378 kts | 238° |
| 2026-04-26 09:08 | -36.95755 | 146.29815 | 25435 ft | 377 kts | 238° |
| 2026-04-26 09:08 | -36.97250 | 146.27116 | 25005 ft | 377 kts | 238° |
| 2026-04-26 09:08 | -36.98742 | 146.24422 | 24574 ft | 377 kts | 238° |
| 2026-04-26 09:08 | -37.00237 | 146.21720 | 24144 ft | 377 kts | 238° |
| 2026-04-26 09:09 | -37.01727 | 146.19025 | 23671 ft | 377 kts | 239° |
| 2026-04-26 09:09 | -37.03218 | 146.16324 | 23163 ft | 376 kts | 239° |
| 2026-04-26 09:09 | -37.04701 | 146.13637 | 22710 ft | 375 kts | 239° |
| 2026-04-26 09:09 | -37.06178 | 146.10959 | 22275 ft | 373 kts | 239° |
| 2026-04-26 09:10 | -37.07651 | 146.08286 | 21839 ft | 371 kts | 239° |
| 2026-04-26 09:10 | -37.09117 | 146.05624 | 21401 ft | 370 kts | 239° |
| 2026-04-26 09:10 | -37.10574 | 146.02973 | 20974 ft | 369 kts | 239° |
| 2026-04-26 09:10 | -37.12027 | 146.00330 | 20553 ft | 368 kts | 239° |
| 2026-04-26 09:11 | -37.13477 | 145.97691 | 20128 ft | 367 kts | 240° |
| 2026-04-26 09:11 | -37.14906 | 145.95089 | 19700 ft | 367 kts | 240° |
| 2026-04-26 09:11 | -37.16351 | 145.92453 | 19261 ft | 367 kts | 240° |
| 2026-04-26 09:11 | -37.17792 | 145.89822 | 18842 ft | 366 kts | 240° |
| 2026-04-26 09:12 | -37.19234 | 145.87186 | 18364 ft | 367 kts | 240° |
| 2026-04-26 09:12 | -37.20673 | 145.84555 | 17889 ft | 362 kts | 240° |
| 2026-04-26 09:12 | -37.22070 | 145.82006 | 17427 ft | 348 kts | 240° |
| 2026-04-26 09:12 | -37.23411 | 145.79557 | 17013 ft | 333 kts | 240° |
| 2026-04-26 09:13 | -37.24698 | 145.77201 | 16614 ft | 321 kts | 240° |
| 2026-04-26 09:13 | -37.25935 | 145.74932 | 16253 ft | 311 kts | 241° |
| 2026-04-26 09:13 | -37.27156 | 145.72685 | 15899 ft | 314 kts | 241° |
| 2026-04-26 09:13 | -37.28400 | 145.70391 | 15537 ft | 322 kts | 240° |
| 2026-04-26 09:14 | -37.29677 | 145.68041 | 15146 ft | 325 kts | 241° |
| 2026-04-26 09:14 | -37.30678 | 145.65564 | 14730 ft | 312 kts | 258° |
| 2026-04-26 09:14 | -37.31179 | 145.62937 | 14381 ft | 308 kts | 262° |
| 2026-04-26 09:14 | -37.31646 | 145.60314 | 14009 ft | 307 kts | 261° |
| 2026-04-26 09:15 | -37.32121 | 145.57695 | 13611 ft | 306 kts | 261° |
| 2026-04-26 09:15 | -37.32603 | 145.55095 | 13209 ft | 305 kts | 260° |
| 2026-04-26 09:15 | -37.33090 | 145.52517 | 12843 ft | 302 kts | 260° |
| 2026-04-26 09:15 | -37.33572 | 145.49982 | 12473 ft | 301 kts | 259° |
| 2026-04-26 09:16 | -37.34059 | 145.47429 | 12113 ft | 300 kts | 259° |
| 2026-04-26 09:16 | -37.34546 | 145.44885 | 11750 ft | 299 kts | 259° |
| 2026-04-26 09:16 | -37.35032 | 145.42351 | 11385 ft | 298 kts | 259° |
| 2026-04-26 09:16 | -37.35515 | 145.39827 | 11018 ft | 297 kts | 259° |
| 2026-04-26 09:17 | -37.35997 | 145.37307 | 10656 ft | 296 kts | 258° |
| 2026-04-26 09:17 | -37.36320 | 145.35616 | 10469 ft | 293 kts | 258° |
| 2026-04-26 09:17 | -37.36946 | 145.32348 | 10165 ft | 286 kts | 258° |
| 2026-04-26 09:17 | -37.37405 | 145.29953 | 10003 ft | 278 kts | 258° |
| 2026-04-26 09:18 | -37.37858 | 145.27587 | 9656 ft | 277 kts | 258° |
| 2026-04-26 09:18 | -37.38307 | 145.25236 | 9319 ft | 276 kts | 258° |
| 2026-04-26 09:18 | -37.38753 | 145.22905 | 9020 ft | 273 kts | 258° |
| 2026-04-26 09:18 | -37.39196 | 145.20582 | 8698 ft | 272 kts | 258° |
| 2026-04-26 09:19 | -37.39636 | 145.18275 | 8385 ft | 271 kts | 258° |
| 2026-04-26 09:19 | -37.40072 | 145.15979 | 8073 ft | 270 kts | 258° |
| 2026-04-26 09:19 | -37.40508 | 145.13686 | 7762 ft | 269 kts | 258° |
| 2026-04-26 09:19 | -37.40941 | 145.11404 | 7448 ft | 268 kts | 258° |
| 2026-04-26 09:20 | -37.41373 | 145.09128 | 7151 ft | 267 kts | 258° |
| 2026-04-26 09:20 | -37.41805 | 145.06852 | 6845 ft | 267 kts | 258° |
| 2026-04-26 09:20 | -37.42225 | 145.04635 | 6514 ft | 254 kts | 257° |
| 2026-04-26 09:20 | -37.42624 | 145.02531 | 6203 ft | 241 kts | 258° |
| 2026-04-26 09:21 | -37.43002 | 145.00535 | 5914 ft | 229 kts | 258° |
| 2026-04-26 09:21 | -37.43374 | 144.98554 | 5681 ft | 240 kts | 258° |
| 2026-04-26 09:21 | -37.43772 | 144.96432 | 5412 ft | 255 kts | 258° |
| 2026-04-26 09:21 | -37.44178 | 144.94265 | 5105 ft | 253 kts | 259° |
| 2026-04-26 09:22 | -37.44504 | 144.92151 | 4933 ft | 238 kts | 262° |
| 2026-04-26 09:22 | -37.44777 | 144.90168 | 4813 ft | 222 kts | 262° |
| 2026-04-26 09:22 | -37.45031 | 144.88328 | 4698 ft | 205 kts | 262° |
| 2026-04-26 09:22 | -37.45270 | 144.86620 | 4598 ft | 194 kts | 263° |
| 2026-04-26 09:23 | -37.45503 | 144.84952 | 4612 ft | 193 kts | 262° |
| 2026-04-26 09:23 | -37.45733 | 144.83316 | 4338 ft | 185 kts | 263° |
| 2026-04-26 09:23 | -37.45988 | 144.81788 | 4122 ft | 173 kts | 250° |
| 2026-04-26 09:23 | -37.46768 | 144.80752 | 3943 ft | 172 kts | 202° |
| 2026-04-26 09:24 | -37.47913 | 144.80622 | 3801 ft | 159 kts | 176° |
| 2026-04-26 09:24 | -37.48991 | 144.80637 | 3592 ft | 154 kts | 182° |
| 2026-04-26 09:24 | -37.50071 | 144.80695 | 3450 ft | 157 kts | 174° |
| 2026-04-26 09:24 | -37.51139 | 144.80861 | 3234 ft | 154 kts | 173° |
| 2026-04-26 09:25 | -37.52214 | 144.81051 | 3021 ft | 157 kts | 172° |
| 2026-04-26 09:25 | -37.53296 | 144.81249 | 2811 ft | 157 kts | 172° |
| 2026-04-26 09:25 | -37.54362 | 144.81449 | 2586 ft | 153 kts | 173° |
| 2026-04-26 09:25 | -37.55409 | 144.81643 | 2403 ft | 151 kts | 172° |
| 2026-04-26 09:26 | -37.56444 | 144.81836 | 2195 ft | 150 kts | 172° |
| 2026-04-26 09:26 | -37.57122 | 144.81962 | 2054 ft | 147 kts | 172° |
| 2026-04-26 09:26 | -37.58130 | 144.82150 | 1877 ft | 147 kts | 172° |
| 2026-04-26 09:26 | -37.59490 | 144.82404 | 1603 ft | 145 kts | 172° |
| 2026-04-26 09:27 | -37.60150 | 144.82527 | 1470 ft | 144 kts | 172° |
| 2026-04-26 09:27 | -37.61440 | 144.82768 | 1244 ft | 138 kts | 172° |
| 2026-04-26 09:27 | -37.62060 | 144.82883 | 1110 ft | 135 kts | 172° |
| 2026-04-26 09:27 | -37.63288 | 144.83112 | 851 ft | 132 kts | 172° |
| 2026-04-26 09:28 | -37.63886 | 144.83235 | 755 ft | 131 kts | 172° |
| 2026-04-26 09:28 | -37.64804 | 144.83402 | 614 ft | 134 kts | 173° |
| 2026-04-26 09:28 | -37.65719 | 144.83568 | 432 ft | 130 kts | 172° |
| 2026-04-26 09:28 | -37.66508 | 144.83712 | 410 ft | 94 kts | 172° |
| 2026-04-26 09:29 | -37.67004 | 144.83805 | 391 ft | 50 kts | 171° |
| 2026-04-26 09:29 | -37.67196 | 144.83840 | 385 ft | 13 kts | 172° |
| 2026-04-26 09:29 | -37.67302 | 144.83860 | 380 ft | 18 kts | 172° |
| 2026-04-26 09:29 | -37.67494 | 144.83895 | 374 ft | 34 kts | 172° |
| 2026-04-26 09:30 | -37.67729 | 144.83940 | 366 ft | 35 kts | 171° |
| 2026-04-26 09:30 | -37.67860 | 144.84009 | 369 ft | 20 kts | 122° |
| 2026-04-26 09:30 | -37.67870 | 144.84141 | 369 ft | 0 kts | 82° |
| 2026-04-26 09:32 | -37.67867 | 144.84166 | 369 ft | 11 kts | 82° |
| 2026-04-26 09:32 | -37.67817 | 144.84345 | 373 ft | 26 kts | 43° |
| 2026-04-26 09:32 | -37.67642 | 144.84351 | 377 ft | 26 kts | 351° |
| 2026-04-26 09:32 | -37.67462 | 144.84319 | 381 ft | 26 kts | 352° |
| 2026-04-26 09:33 | -37.67319 | 144.84292 | 384 ft | 9 kts | 351° |
| 2026-04-26 09:33 | -37.67274 | 144.84308 | 386 ft | 2 kts | 53° |
| 2026-04-26 09:33 | -37.67277 | 144.84329 | 386 ft | 3 kts | 113° |
| 2026-04-26 09:33 | -37.67288 | 144.84360 | 386 ft | 5 kts | 114° |
| 2026-04-26 09:34 | -37.67299 | 144.84389 | 386 ft | 0 kts | 115° |
| 2026-04-26 09:34 | -37.67299 | 144.84390 | 386 ft | 0 kts | 116° |